sensor_id;sensor_type;location;lat;lon;timestamp;P1;durP1;ratioP1;P2;durP2;ratioP2
16199;SDS011;8207;52.494;4.654;2024-03-17T00:00:33;9.07;;;3.20;;
16199;SDS011;8207;52.494;4.654;2024-03-17T00:02:59;13.35;;;3.80;;
16199;SDS011;8207;52.494;4.654;2024-03-17T00:05:25;12.15;;;3.67;;
16199;SDS011;8207;52.494;4.654;2024-03-17T00:07:50;11.55;;;3.70;;
16199;SDS011;8207;52.494;4.654;2024-03-17T00:10:15;11.07;;;3.75;;
16199;SDS011;8207;52.494;4.654;2024-03-17T00:12:41;11.00;;;3.70;;
16199;SDS011;8207;52.494;4.654;2024-03-17T00:15:07;10.18;;;3.83;;
16199;SDS011;8207;52.494;4.654;2024-03-17T00:17:33;10.85;;;4.60;;
16199;SDS011;8207;52.494;4.654;2024-03-17T00:20:02;8.18;;;3.47;;
16199;SDS011;8207;52.494;4.654;2024-03-17T00:22:33;11.13;;;3.85;;
16199;SDS011;8207;52.494;4.654;2024-03-17T00:25:02;9.85;;;4.10;;
16199;SDS011;8207;52.494;4.654;2024-03-17T00:27:28;14.20;;;4.70;;
16199;SDS011;8207;52.494;4.654;2024-03-17T00:29:53;9.23;;;4.28;;
16199;SDS011;8207;52.494;4.654;2024-03-17T00:32:19;11.40;;;4.70;;
16199;SDS011;8207;52.494;4.654;2024-03-17T00:34:44;12.88;;;4.93;;
16199;SDS011;8207;52.494;4.654;2024-03-17T00:37:09;13.82;;;5.35;;
16199;SDS011;8207;52.494;4.654;2024-03-17T00:39:35;13.20;;;5.47;;
16199;SDS011;8207;52.494;4.654;2024-03-17T00:42:00;16.45;;;5.88;;
16199;SDS011;8207;52.494;4.654;2024-03-17T00:44:26;14.18;;;5.60;;
16199;SDS011;8207;52.494;4.654;2024-03-17T00:46:52;14.82;;;6.20;;
16199;SDS011;8207;52.494;4.654;2024-03-17T00:49:17;15.90;;;5.45;;
16199;SDS011;8207;52.494;4.654;2024-03-17T00:51:42;15.25;;;5.70;;
16199;SDS011;8207;52.494;4.654;2024-03-17T00:54:08;14.55;;;6.20;;
16199;SDS011;8207;52.494;4.654;2024-03-17T00:56:33;14.48;;;5.55;;
16199;SDS011;8207;52.494;4.654;2024-03-17T00:58:58;13.25;;;5.90;;
16199;SDS011;8207;52.494;4.654;2024-03-17T01:01:24;14.05;;;6.03;;
16199;SDS011;8207;52.494;4.654;2024-03-17T01:03:50;14.38;;;5.68;;
16199;SDS011;8207;52.494;4.654;2024-03-17T01:06:15;13.60;;;5.75;;
16199;SDS011;8207;52.494;4.654;2024-03-17T01:08:40;13.35;;;5.22;;
16199;SDS011;8207;52.494;4.654;2024-03-17T01:11:06;13.25;;;6.00;;
16199;SDS011;8207;52.494;4.654;2024-03-17T01:13:34;12.35;;;4.65;;
16199;SDS011;8207;52.494;4.654;2024-03-17T01:16:00;14.05;;;5.03;;
16199;SDS011;8207;52.494;4.654;2024-03-17T01:18:25;14.10;;;5.00;;
16199;SDS011;8207;52.494;4.654;2024-03-17T01:20:51;15.25;;;5.30;;
16199;SDS011;8207;52.494;4.654;2024-03-17T01:23:16;16.83;;;5.13;;
16199;SDS011;8207;52.494;4.654;2024-03-17T01:25:42;15.13;;;4.95;;
16199;SDS011;8207;52.494;4.654;2024-03-17T01:28:07;11.63;;;4.95;;
16199;SDS011;8207;52.494;4.654;2024-03-17T01:30:32;15.43;;;4.28;;
16199;SDS011;8207;52.494;4.654;2024-03-17T01:32:59;11.38;;;3.95;;
16199;SDS011;8207;52.494;4.654;2024-03-17T01:35:25;8.43;;;3.22;;
16199;SDS011;8207;52.494;4.654;2024-03-17T01:37:51;11.40;;;3.63;;
16199;SDS011;8207;52.494;4.654;2024-03-17T01:40:16;9.82;;;2.88;;
16199;SDS011;8207;52.494;4.654;2024-03-17T01:42:42;7.65;;;2.80;;
16199;SDS011;8207;52.494;4.654;2024-03-17T01:47:41;8.55;;;2.97;;
16199;SDS011;8207;52.494;4.654;2024-03-17T01:50:07;10.88;;;3.10;;
16199;SDS011;8207;52.494;4.654;2024-03-17T01:52:34;14.88;;;3.10;;
16199;SDS011;8207;52.494;4.654;2024-03-17T01:55:00;8.00;;;2.90;;
16199;SDS011;8207;52.494;4.654;2024-03-17T01:57:26;10.18;;;2.80;;
16199;SDS011;8207;52.494;4.654;2024-03-17T01:59:51;11.55;;;2.83;;
16199;SDS011;8207;52.494;4.654;2024-03-17T02:02:16;10.00;;;3.05;;
16199;SDS011;8207;52.494;4.654;2024-03-17T02:04:42;7.22;;;2.70;;
16199;SDS011;8207;52.494;4.654;2024-03-17T02:07:07;10.27;;;3.30;;
16199;SDS011;8207;52.494;4.654;2024-03-17T02:09:33;7.28;;;2.88;;
16199;SDS011;8207;52.494;4.654;2024-03-17T02:11:58;9.65;;;2.70;;
16199;SDS011;8207;52.494;4.654;2024-03-17T02:14:24;11.93;;;2.83;;
16199;SDS011;8207;52.494;4.654;2024-03-17T02:16:49;9.55;;;2.95;;
16199;SDS011;8207;52.494;4.654;2024-03-17T02:19:15;9.13;;;2.95;;
16199;SDS011;8207;52.494;4.654;2024-03-17T02:21:40;8.13;;;2.72;;
16199;SDS011;8207;52.494;4.654;2024-03-17T02:24:05;8.77;;;2.90;;
16199;SDS011;8207;52.494;4.654;2024-03-17T02:26:33;10.45;;;3.33;;
16199;SDS011;8207;52.494;4.654;2024-03-17T02:29:00;12.60;;;3.50;;
16199;SDS011;8207;52.494;4.654;2024-03-17T02:31:25;10.88;;;3.13;;
16199;SDS011;8207;52.494;4.654;2024-03-17T02:33:51;9.52;;;3.10;;
16199;SDS011;8207;52.494;4.654;2024-03-17T02:36:16;12.70;;;3.20;;
16199;SDS011;8207;52.494;4.654;2024-03-17T02:38:42;11.20;;;4.22;;
16199;SDS011;8207;52.494;4.654;2024-03-17T02:41:26;10.40;;;3.15;;
16199;SDS011;8207;52.494;4.654;2024-03-17T02:43:53;11.55;;;3.25;;
16199;SDS011;8207;52.494;4.654;2024-03-17T02:46:19;12.63;;;3.38;;
16199;SDS011;8207;52.494;4.654;2024-03-17T02:48:46;12.77;;;3.55;;
16199;SDS011;8207;52.494;4.654;2024-03-17T02:51:14;7.63;;;3.40;;
16199;SDS011;8207;52.494;4.654;2024-03-17T02:53:41;11.80;;;3.60;;
16199;SDS011;8207;52.494;4.654;2024-03-17T02:56:07;9.57;;;3.45;;
16199;SDS011;8207;52.494;4.654;2024-03-17T02:58:35;9.35;;;3.50;;
16199;SDS011;8207;52.494;4.654;2024-03-17T03:01:02;12.25;;;4.10;;
16199;SDS011;8207;52.494;4.654;2024-03-17T03:03:29;9.48;;;4.05;;
16199;SDS011;8207;52.494;4.654;2024-03-17T03:05:55;8.73;;;4.13;;
16199;SDS011;8207;52.494;4.654;2024-03-17T03:08:21;15.35;;;4.35;;
16199;SDS011;8207;52.494;4.654;2024-03-17T03:10:47;9.88;;;4.22;;
16199;SDS011;8207;52.494;4.654;2024-03-17T03:13:12;11.70;;;4.45;;
16199;SDS011;8207;52.494;4.654;2024-03-17T03:15:38;10.65;;;5.00;;
16199;SDS011;8207;52.494;4.654;2024-03-17T03:18:03;14.88;;;4.70;;
16199;SDS011;8207;52.494;4.654;2024-03-17T03:20:29;12.15;;;4.93;;
16199;SDS011;8207;52.494;4.654;2024-03-17T03:22:55;10.65;;;5.63;;
16199;SDS011;8207;52.494;4.654;2024-03-17T03:25:21;9.52;;;5.20;;
16199;SDS011;8207;52.494;4.654;2024-03-17T03:27:46;16.00;;;5.72;;
16199;SDS011;8207;52.494;4.654;2024-03-17T03:30:12;11.85;;;5.60;;
16199;SDS011;8207;52.494;4.654;2024-03-17T03:32:37;11.90;;;5.75;;
16199;SDS011;8207;52.494;4.654;2024-03-17T03:35:03;12.70;;;5.93;;
16199;SDS011;8207;52.494;4.654;2024-03-17T03:37:29;11.50;;;6.13;;
16199;SDS011;8207;52.494;4.654;2024-03-17T03:39:55;13.30;;;6.40;;
16199;SDS011;8207;52.494;4.654;2024-03-17T03:42:21;12.15;;;6.07;;
16199;SDS011;8207;52.494;4.654;2024-03-17T03:44:48;12.35;;;6.07;;
16199;SDS011;8207;52.494;4.654;2024-03-17T03:47:14;11.95;;;6.32;;
16199;SDS011;8207;52.494;4.654;2024-03-17T03:49:40;13.30;;;6.20;;
16199;SDS011;8207;52.494;4.654;2024-03-17T03:52:05;11.55;;;6.10;;
16199;SDS011;8207;52.494;4.654;2024-03-17T03:54:30;10.93;;;6.30;;
16199;SDS011;8207;52.494;4.654;2024-03-17T03:56:56;11.65;;;6.13;;
16199;SDS011;8207;52.494;4.654;2024-03-17T03:59:21;11.43;;;6.03;;
16199;SDS011;8207;52.494;4.654;2024-03-17T04:01:47;11.90;;;5.53;;
16199;SDS011;8207;52.494;4.654;2024-03-17T04:04:14;11.70;;;5.88;;
16199;SDS011;8207;52.494;4.654;2024-03-17T04:06:39;12.75;;;5.95;;
16199;SDS011;8207;52.494;4.654;2024-03-17T04:09:05;11.45;;;5.90;;
16199;SDS011;8207;52.494;4.654;2024-03-17T04:11:32;11.75;;;6.90;;
16199;SDS011;8207;52.494;4.654;2024-03-17T04:13:58;11.80;;;6.25;;
16199;SDS011;8207;52.494;4.654;2024-03-17T04:16:25;10.18;;;5.63;;
16199;SDS011;8207;52.494;4.654;2024-03-17T04:18:51;11.70;;;5.88;;
16199;SDS011;8207;52.494;4.654;2024-03-17T04:21:16;11.90;;;5.82;;
16199;SDS011;8207;52.494;4.654;2024-03-17T04:23:42;13.52;;;6.53;;
16199;SDS011;8207;52.494;4.654;2024-03-17T04:26:07;11.82;;;6.28;;
16199;SDS011;8207;52.494;4.654;2024-03-17T04:28:33;12.80;;;6.50;;
16199;SDS011;8207;52.494;4.654;2024-03-17T04:31:07;10.32;;;6.07;;
16199;SDS011;8207;52.494;4.654;2024-03-17T04:33:33;10.90;;;6.07;;
16199;SDS011;8207;52.494;4.654;2024-03-17T04:35:59;12.35;;;5.97;;
16199;SDS011;8207;52.494;4.654;2024-03-17T04:38:25;8.95;;;5.57;;
16199;SDS011;8207;52.494;4.654;2024-03-17T04:40:52;10.23;;;5.93;;
16199;SDS011;8207;52.494;4.654;2024-03-17T04:43:24;12.57;;;6.10;;
16199;SDS011;8207;52.494;4.654;2024-03-17T04:45:49;10.77;;;6.43;;
16199;SDS011;8207;52.494;4.654;2024-03-17T04:48:24;10.98;;;6.03;;
16199;SDS011;8207;52.494;4.654;2024-03-17T04:50:49;13.65;;;6.05;;
16199;SDS011;8207;52.494;4.654;2024-03-17T04:53:15;10.80;;;6.15;;
16199;SDS011;8207;52.494;4.654;2024-03-17T04:55:40;9.93;;;5.80;;
16199;SDS011;8207;52.494;4.654;2024-03-17T04:58:05;9.30;;;6.10;;
16199;SDS011;8207;52.494;4.654;2024-03-17T05:00:31;15.27;;;5.93;;
16199;SDS011;8207;52.494;4.654;2024-03-17T05:02:56;12.00;;;6.35;;
16199;SDS011;8207;52.494;4.654;2024-03-17T05:05:21;12.57;;;6.97;;
16199;SDS011;8207;52.494;4.654;2024-03-17T05:07:48;12.43;;;6.40;;
16199;SDS011;8207;52.494;4.654;2024-03-17T05:10:15;11.70;;;6.13;;
16199;SDS011;8207;52.494;4.654;2024-03-17T05:12:40;14.43;;;7.25;;
16199;SDS011;8207;52.494;4.654;2024-03-17T05:15:05;12.85;;;6.70;;
16199;SDS011;8207;52.494;4.654;2024-03-17T05:17:32;16.85;;;7.88;;
16199;SDS011;8207;52.494;4.654;2024-03-17T05:19:57;15.07;;;7.47;;
16199;SDS011;8207;52.494;4.654;2024-03-17T05:22:23;13.85;;;7.43;;
16199;SDS011;8207;52.494;4.654;2024-03-17T05:24:48;11.85;;;6.85;;
16199;SDS011;8207;52.494;4.654;2024-03-17T05:27:13;12.75;;;7.38;;
16199;SDS011;8207;52.494;4.654;2024-03-17T05:29:39;13.63;;;7.10;;
16199;SDS011;8207;52.494;4.654;2024-03-17T05:32:04;13.18;;;6.88;;
16199;SDS011;8207;52.494;4.654;2024-03-17T05:34:30;12.30;;;7.13;;
16199;SDS011;8207;52.494;4.654;2024-03-17T05:36:55;13.77;;;7.60;;
16199;SDS011;8207;52.494;4.654;2024-03-17T05:39:21;13.98;;;7.43;;
16199;SDS011;8207;52.494;4.654;2024-03-17T05:41:47;11.80;;;7.25;;
16199;SDS011;8207;52.494;4.654;2024-03-17T05:44:14;14.68;;;7.88;;
16199;SDS011;8207;52.494;4.654;2024-03-17T05:46:40;14.25;;;7.97;;
16199;SDS011;8207;52.494;4.654;2024-03-17T05:49:05;12.68;;;7.55;;
16199;SDS011;8207;52.494;4.654;2024-03-17T05:51:31;13.10;;;7.95;;
16199;SDS011;8207;52.494;4.654;2024-03-17T05:53:57;12.73;;;7.20;;
16199;SDS011;8207;52.494;4.654;2024-03-17T05:56:23;11.07;;;7.38;;
16199;SDS011;8207;52.494;4.654;2024-03-17T05:58:49;13.35;;;7.85;;
16199;SDS011;8207;52.494;4.654;2024-03-17T06:01:14;15.50;;;8.07;;
16199;SDS011;8207;52.494;4.654;2024-03-17T06:03:39;13.60;;;7.50;;
16199;SDS011;8207;52.494;4.654;2024-03-17T06:06:06;12.70;;;7.70;;
16199;SDS011;8207;52.494;4.654;2024-03-17T06:08:36;12.55;;;7.25;;
16199;SDS011;8207;52.494;4.654;2024-03-17T06:11:02;10.68;;;7.30;;
16199;SDS011;8207;52.494;4.654;2024-03-17T06:13:29;13.90;;;7.50;;
16199;SDS011;8207;52.494;4.654;2024-03-17T06:15:55;10.95;;;7.32;;
16199;SDS011;8207;52.494;4.654;2024-03-17T06:18:25;10.63;;;6.75;;
16199;SDS011;8207;52.494;4.654;2024-03-17T06:20:51;11.35;;;6.78;;
16199;SDS011;8207;52.494;4.654;2024-03-17T06:23:17;12.25;;;6.97;;
16199;SDS011;8207;52.494;4.654;2024-03-17T06:25:46;12.10;;;7.10;;
16199;SDS011;8207;52.494;4.654;2024-03-17T06:28:14;13.25;;;7.65;;
16199;SDS011;8207;52.494;4.654;2024-03-17T06:30:40;13.43;;;7.13;;
16199;SDS011;8207;52.494;4.654;2024-03-17T06:33:06;11.43;;;7.22;;
16199;SDS011;8207;52.494;4.654;2024-03-17T06:35:32;13.70;;;7.50;;
16199;SDS011;8207;52.494;4.654;2024-03-17T06:38:00;12.90;;;7.63;;
16199;SDS011;8207;52.494;4.654;2024-03-17T06:40:26;12.18;;;8.00;;
16199;SDS011;8207;52.494;4.654;2024-03-17T06:42:51;12.23;;;7.45;;
16199;SDS011;8207;52.494;4.654;2024-03-17T06:45:18;14.18;;;8.20;;
16199;SDS011;8207;52.494;4.654;2024-03-17T06:47:45;12.52;;;7.60;;
16199;SDS011;8207;52.494;4.654;2024-03-17T06:50:11;11.90;;;7.65;;
16199;SDS011;8207;52.494;4.654;2024-03-17T06:52:36;11.75;;;8.05;;
16199;SDS011;8207;52.494;4.654;2024-03-17T06:55:02;13.02;;;7.63;;
16199;SDS011;8207;52.494;4.654;2024-03-17T06:57:28;13.45;;;7.53;;
16199;SDS011;8207;52.494;4.654;2024-03-17T06:59:53;11.73;;;8.02;;
16199;SDS011;8207;52.494;4.654;2024-03-17T07:02:18;13.93;;;7.75;;
16199;SDS011;8207;52.494;4.654;2024-03-17T07:04:45;12.73;;;7.78;;
16199;SDS011;8207;52.494;4.654;2024-03-17T07:07:11;12.90;;;8.13;;
16199;SDS011;8207;52.494;4.654;2024-03-17T07:09:37;14.55;;;8.18;;
16199;SDS011;8207;52.494;4.654;2024-03-17T07:12:04;12.73;;;8.35;;
16199;SDS011;8207;52.494;4.654;2024-03-17T07:14:34;14.02;;;8.15;;
16199;SDS011;8207;52.494;4.654;2024-03-17T07:16:59;13.60;;;8.50;;
16199;SDS011;8207;52.494;4.654;2024-03-17T07:19:25;15.00;;;8.27;;
16199;SDS011;8207;52.494;4.654;2024-03-17T07:21:50;14.48;;;8.32;;
16199;SDS011;8207;52.494;4.654;2024-03-17T07:24:15;12.77;;;8.00;;
16199;SDS011;8207;52.494;4.654;2024-03-17T07:26:41;13.20;;;8.38;;
16199;SDS011;8207;52.494;4.654;2024-03-17T07:29:06;12.93;;;8.52;;
16199;SDS011;8207;52.494;4.654;2024-03-17T07:31:33;12.55;;;8.40;;
16199;SDS011;8207;52.494;4.654;2024-03-17T07:33:58;14.60;;;8.68;;
16199;SDS011;8207;52.494;4.654;2024-03-17T07:36:24;13.48;;;8.68;;
16199;SDS011;8207;52.494;4.654;2024-03-17T07:38:49;14.63;;;8.80;;
16199;SDS011;8207;52.494;4.654;2024-03-17T07:41:15;14.18;;;8.70;;
16199;SDS011;8207;52.494;4.654;2024-03-17T07:43:40;14.00;;;8.18;;
16199;SDS011;8207;52.494;4.654;2024-03-17T07:46:09;13.07;;;8.05;;
16199;SDS011;8207;52.494;4.654;2024-03-17T07:48:37;12.45;;;8.80;;
16199;SDS011;8207;52.494;4.654;2024-03-17T07:51:05;14.70;;;8.30;;
16199;SDS011;8207;52.494;4.654;2024-03-17T07:53:36;11.98;;;8.18;;
16199;SDS011;8207;52.494;4.654;2024-03-17T07:56:03;12.77;;;8.70;;
16199;SDS011;8207;52.494;4.654;2024-03-17T07:58:30;14.70;;;8.43;;
16199;SDS011;8207;52.494;4.654;2024-03-17T08:00:58;17.20;;;9.15;;
16199;SDS011;8207;52.494;4.654;2024-03-17T08:03:32;13.60;;;8.98;;
16199;SDS011;8207;52.494;4.654;2024-03-17T08:06:01;13.07;;;8.83;;
16199;SDS011;8207;52.494;4.654;2024-03-17T08:08:28;13.35;;;8.60;;
16199;SDS011;8207;52.494;4.654;2024-03-17T08:10:53;13.77;;;8.63;;
16199;SDS011;8207;52.494;4.654;2024-03-17T08:13:19;14.65;;;9.23;;
16199;SDS011;8207;52.494;4.654;2024-03-17T08:15:46;13.30;;;9.35;;
16199;SDS011;8207;52.494;4.654;2024-03-17T08:18:19;16.58;;;9.90;;
16199;SDS011;8207;52.494;4.654;2024-03-17T08:20:45;14.73;;;9.38;;
16199;SDS011;8207;52.494;4.654;2024-03-17T08:23:11;14.13;;;9.40;;
16199;SDS011;8207;52.494;4.654;2024-03-17T08:25:38;17.65;;;9.98;;
16199;SDS011;8207;52.494;4.654;2024-03-17T08:28:03;15.55;;;9.50;;
16199;SDS011;8207;52.494;4.654;2024-03-17T08:30:29;15.02;;;10.07;;
16199;SDS011;8207;52.494;4.654;2024-03-17T08:32:58;15.25;;;9.70;;
16199;SDS011;8207;52.494;4.654;2024-03-17T08:35:23;17.52;;;10.55;;
16199;SDS011;8207;52.494;4.654;2024-03-17T08:37:49;15.52;;;9.68;;
16199;SDS011;8207;52.494;4.654;2024-03-17T08:40:16;15.95;;;10.05;;
16199;SDS011;8207;52.494;4.654;2024-03-17T08:42:42;14.93;;;9.90;;
16199;SDS011;8207;52.494;4.654;2024-03-17T08:45:07;15.63;;;9.68;;
16199;SDS011;8207;52.494;4.654;2024-03-17T08:47:35;16.02;;;9.80;;
16199;SDS011;8207;52.494;4.654;2024-03-17T08:50:00;17.70;;;9.95;;
16199;SDS011;8207;52.494;4.654;2024-03-17T08:52:29;15.52;;;10.00;;
16199;SDS011;8207;52.494;4.654;2024-03-17T08:54:56;15.50;;;9.25;;
16199;SDS011;8207;52.494;4.654;2024-03-17T08:57:22;13.75;;;9.73;;
16199;SDS011;8207;52.494;4.654;2024-03-17T08:59:48;16.00;;;9.27;;
16199;SDS011;8207;52.494;4.654;2024-03-17T09:02:13;16.90;;;10.20;;
16199;SDS011;8207;52.494;4.654;2024-03-17T09:04:40;16.48;;;10.10;;
16199;SDS011;8207;52.494;4.654;2024-03-17T09:07:06;14.57;;;10.23;;
16199;SDS011;8207;52.494;4.654;2024-03-17T09:09:31;14.02;;;9.40;;
16199;SDS011;8207;52.494;4.654;2024-03-17T09:11:56;13.35;;;9.55;;
16199;SDS011;8207;52.494;4.654;2024-03-17T09:14:22;14.48;;;9.65;;
16199;SDS011;8207;52.494;4.654;2024-03-17T09:16:47;15.45;;;9.73;;
16199;SDS011;8207;52.494;4.654;2024-03-17T09:19:13;16.58;;;9.68;;
16199;SDS011;8207;52.494;4.654;2024-03-17T09:21:39;14.57;;;9.88;;
16199;SDS011;8207;52.494;4.654;2024-03-17T09:24:05;16.48;;;9.70;;
16199;SDS011;8207;52.494;4.654;2024-03-17T09:26:32;15.63;;;9.48;;
16199;SDS011;8207;52.494;4.654;2024-03-17T09:28:59;14.82;;;9.32;;
16199;SDS011;8207;52.494;4.654;2024-03-17T09:31:24;14.70;;;9.38;;
16199;SDS011;8207;52.494;4.654;2024-03-17T09:33:50;14.43;;;8.93;;
16199;SDS011;8207;52.494;4.654;2024-03-17T09:36:16;16.13;;;9.40;;
16199;SDS011;8207;52.494;4.654;2024-03-17T09:38:41;13.98;;;9.13;;
16199;SDS011;8207;52.494;4.654;2024-03-17T09:41:09;14.13;;;9.60;;
16199;SDS011;8207;52.494;4.654;2024-03-17T09:43:45;15.15;;;9.18;;
16199;SDS011;8207;52.494;4.654;2024-03-17T09:46:12;14.00;;;9.38;;
16199;SDS011;8207;52.494;4.654;2024-03-17T09:48:39;13.93;;;8.77;;
16199;SDS011;8207;52.494;4.654;2024-03-17T09:51:05;15.93;;;9.30;;
16199;SDS011;8207;52.494;4.654;2024-03-17T09:53:33;15.30;;;9.68;;
16199;SDS011;8207;52.494;4.654;2024-03-17T09:56:06;14.57;;;9.65;;
16199;SDS011;8207;52.494;4.654;2024-03-17T09:58:34;12.48;;;8.75;;
16199;SDS011;8207;52.494;4.654;2024-03-17T10:01:00;12.77;;;8.50;;
16199;SDS011;8207;52.494;4.654;2024-03-17T10:03:42;12.35;;;9.02;;
16199;SDS011;8207;52.494;4.654;2024-03-17T10:06:07;13.27;;;8.88;;
16199;SDS011;8207;52.494;4.654;2024-03-17T10:08:52;14.48;;;8.90;;
16199;SDS011;8207;52.494;4.654;2024-03-17T10:11:20;16.02;;;8.82;;
16199;SDS011;8207;52.494;4.654;2024-03-17T10:13:58;13.93;;;8.60;;
16199;SDS011;8207;52.494;4.654;2024-03-17T10:16:25;14.57;;;9.15;;
16199;SDS011;8207;52.494;4.654;2024-03-17T10:21:39;13.55;;;8.52;;
16199;SDS011;8207;52.494;4.654;2024-03-17T10:24:06;12.43;;;8.65;;
16199;SDS011;8207;52.494;4.654;2024-03-17T10:26:42;13.45;;;9.40;;
16199;SDS011;8207;52.494;4.654;2024-03-17T10:34:25;12.60;;;8.63;;
16199;SDS011;8207;52.494;4.654;2024-03-17T10:42:04;12.80;;;8.32;;
16199;SDS011;8207;52.494;4.654;2024-03-17T10:44:31;13.50;;;8.88;;
16199;SDS011;8207;52.494;4.654;2024-03-17T10:47:00;14.85;;;9.05;;
16199;SDS011;8207;52.494;4.654;2024-03-17T10:49:30;13.65;;;8.98;;
16199;SDS011;8207;52.494;4.654;2024-03-17T10:51:59;14.57;;;8.02;;
16199;SDS011;8207;52.494;4.654;2024-03-17T10:54:27;16.35;;;9.00;;
16199;SDS011;8207;52.494;4.654;2024-03-17T10:56:54;15.38;;;9.27;;
16199;SDS011;8207;52.494;4.654;2024-03-17T10:59:31;12.75;;;8.82;;
16199;SDS011;8207;52.494;4.654;2024-03-17T11:02:07;13.07;;;8.95;;
16199;SDS011;8207;52.494;4.654;2024-03-17T11:04:50;13.20;;;8.68;;
16199;SDS011;8207;52.494;4.654;2024-03-17T11:07:20;13.40;;;9.23;;
16199;SDS011;8207;52.494;4.654;2024-03-17T11:09:47;13.52;;;9.02;;
16199;SDS011;8207;52.494;4.654;2024-03-17T11:17:53;14.27;;;9.18;;
16199;SDS011;8207;52.494;4.654;2024-03-17T11:20:23;13.18;;;9.00;;
16199;SDS011;8207;52.494;4.654;2024-03-17T11:22:50;14.07;;;9.05;;
16199;SDS011;8207;52.494;4.654;2024-03-17T11:36:37;12.68;;;9.15;;
16199;SDS011;8207;52.494;4.654;2024-03-17T11:38:55;14.10;;;8.73;;
16199;SDS011;8207;52.494;4.654;2024-03-17T11:49:24;14.13;;;9.38;;
16199;SDS011;8207;52.494;4.654;2024-03-17T11:51:54;13.82;;;9.57;;
16199;SDS011;8207;52.494;4.654;2024-03-17T11:54:24;14.80;;;10.00;;
16199;SDS011;8207;52.494;4.654;2024-03-17T11:56:53;14.27;;;9.40;;
16199;SDS011;8207;52.494;4.654;2024-03-17T11:59:20;15.05;;;9.45;;
16199;SDS011;8207;52.494;4.654;2024-03-17T12:01:47;14.88;;;9.88;;
16199;SDS011;8207;52.494;4.654;2024-03-17T12:04:17;13.77;;;9.45;;
16199;SDS011;8207;52.494;4.654;2024-03-17T12:06:46;12.73;;;9.48;;
16199;SDS011;8207;52.494;4.654;2024-03-17T12:09:22;14.35;;;9.48;;
16199;SDS011;8207;52.494;4.654;2024-03-17T12:11:59;15.15;;;8.82;;
16199;SDS011;8207;52.494;4.654;2024-03-17T12:14:26;13.10;;;9.48;;
16199;SDS011;8207;52.494;4.654;2024-03-17T12:19:27;14.68;;;9.13;;
16199;SDS011;8207;52.494;4.654;2024-03-17T12:22:00;13.98;;;8.65;;
16199;SDS011;8207;52.494;4.654;2024-03-17T12:24:27;12.50;;;8.73;;
16199;SDS011;8207;52.494;4.654;2024-03-17T12:26:54;16.08;;;9.50;;
16199;SDS011;8207;52.494;4.654;2024-03-17T12:32:21;14.00;;;9.43;;
16199;SDS011;8207;52.494;4.654;2024-03-17T12:37:18;13.68;;;9.10;;
16199;SDS011;8207;52.494;4.654;2024-03-17T12:39:45;14.68;;;9.20;;
16199;SDS011;8207;52.494;4.654;2024-03-17T12:42:12;12.50;;;8.52;;
16199;SDS011;8207;52.494;4.654;2024-03-17T12:44:48;13.30;;;8.68;;
16199;SDS011;8207;52.494;4.654;2024-03-17T12:47:14;13.95;;;9.52;;
16199;SDS011;8207;52.494;4.654;2024-03-17T12:52:26;14.15;;;8.85;;
16199;SDS011;8207;52.494;4.654;2024-03-17T12:54:58;12.10;;;8.27;;
16199;SDS011;8207;52.494;4.654;2024-03-17T12:57:43;11.85;;;8.63;;
16199;SDS011;8207;52.494;4.654;2024-03-17T13:00:28;14.30;;;9.10;;
16199;SDS011;8207;52.494;4.654;2024-03-17T13:03:02;15.13;;;8.88;;
16199;SDS011;8207;52.494;4.654;2024-03-17T13:05:29;17.90;;;9.05;;
16199;SDS011;8207;52.494;4.654;2024-03-17T13:07:56;14.63;;;8.60;;
16199;SDS011;8207;52.494;4.654;2024-03-17T13:10:22;19.50;;;9.40;;
16199;SDS011;8207;52.494;4.654;2024-03-17T13:12:59;15.05;;;9.50;;
16199;SDS011;8207;52.494;4.654;2024-03-17T13:15:28;15.23;;;9.27;;
16199;SDS011;8207;52.494;4.654;2024-03-17T13:17:59;12.43;;;8.88;;
16199;SDS011;8207;52.494;4.654;2024-03-17T13:20:25;17.02;;;9.15;;
16199;SDS011;8207;52.494;4.654;2024-03-17T13:22:51;15.40;;;8.90;;
16199;SDS011;8207;52.494;4.654;2024-03-17T13:25:20;11.70;;;8.68;;
16199;SDS011;8207;52.494;4.654;2024-03-17T13:27:48;14.98;;;9.00;;
16199;SDS011;8207;52.494;4.654;2024-03-17T13:30:14;14.10;;;8.88;;
16199;SDS011;8207;52.494;4.654;2024-03-17T13:32:41;18.48;;;9.13;;
16199;SDS011;8207;52.494;4.654;2024-03-17T13:35:14;13.98;;;8.65;;
16199;SDS011;8207;52.494;4.654;2024-03-17T13:37:41;13.60;;;9.23;;
16199;SDS011;8207;52.494;4.654;2024-03-17T13:40:07;15.02;;;9.25;;
16199;SDS011;8207;52.494;4.654;2024-03-17T13:42:35;12.25;;;8.18;;
16199;SDS011;8207;52.494;4.654;2024-03-17T13:45:00;14.80;;;9.25;;
16199;SDS011;8207;52.494;4.654;2024-03-17T13:47:25;14.32;;;8.70;;
16199;SDS011;8207;52.494;4.654;2024-03-17T13:49:51;13.90;;;8.70;;
16199;SDS011;8207;52.494;4.654;2024-03-17T13:52:16;14.07;;;8.60;;
16199;SDS011;8207;52.494;4.654;2024-03-17T13:54:41;13.52;;;8.95;;
16199;SDS011;8207;52.494;4.654;2024-03-17T13:57:07;13.55;;;8.70;;
16199;SDS011;8207;52.494;4.654;2024-03-17T13:59:32;14.43;;;8.15;;
16199;SDS011;8207;52.494;4.654;2024-03-17T14:01:57;13.63;;;8.52;;
16199;SDS011;8207;52.494;4.654;2024-03-17T14:04:23;14.60;;;8.70;;
16199;SDS011;8207;52.494;4.654;2024-03-17T14:06:48;13.20;;;8.20;;
16199;SDS011;8207;52.494;4.654;2024-03-17T14:09:14;13.10;;;8.45;;
16199;SDS011;8207;52.494;4.654;2024-03-17T14:11:43;12.35;;;8.20;;
16199;SDS011;8207;52.494;4.654;2024-03-17T14:14:08;15.52;;;8.98;;
16199;SDS011;8207;52.494;4.654;2024-03-17T14:16:35;13.50;;;8.38;;
16199;SDS011;8207;52.494;4.654;2024-03-17T14:19:00;14.40;;;8.90;;
16199;SDS011;8207;52.494;4.654;2024-03-17T14:21:26;14.00;;;8.55;;
16199;SDS011;8207;52.494;4.654;2024-03-17T14:23:52;13.63;;;8.38;;
16199;SDS011;8207;52.494;4.654;2024-03-17T14:26:18;15.30;;;8.52;;
16199;SDS011;8207;52.494;4.654;2024-03-17T14:28:44;11.00;;;8.35;;
16199;SDS011;8207;52.494;4.654;2024-03-17T14:31:10;11.73;;;8.40;;
16199;SDS011;8207;52.494;4.654;2024-03-17T14:33:35;15.73;;;8.38;;
16199;SDS011;8207;52.494;4.654;2024-03-17T14:36:00;12.77;;;8.07;;
16199;SDS011;8207;52.494;4.654;2024-03-17T14:38:26;14.38;;;7.80;;
16199;SDS011;8207;52.494;4.654;2024-03-17T14:40:51;12.55;;;7.95;;
16199;SDS011;8207;52.494;4.654;2024-03-17T14:43:17;16.17;;;8.27;;
16199;SDS011;8207;52.494;4.654;2024-03-17T14:45:42;13.73;;;8.18;;
16199;SDS011;8207;52.494;4.654;2024-03-17T14:48:08;15.68;;;8.07;;
16199;SDS011;8207;52.494;4.654;2024-03-17T14:50:38;13.40;;;8.18;;
16199;SDS011;8207;52.494;4.654;2024-03-17T14:53:03;13.23;;;8.05;;
16199;SDS011;8207;52.494;4.654;2024-03-17T14:55:30;14.05;;;7.80;;
16199;SDS011;8207;52.494;4.654;2024-03-17T14:57:55;11.68;;;7.68;;
16199;SDS011;8207;52.494;4.654;2024-03-17T15:00:20;14.02;;;7.95;;
16199;SDS011;8207;52.494;4.654;2024-03-17T15:02:48;13.57;;;7.93;;
16199;SDS011;8207;52.494;4.654;2024-03-17T15:05:16;12.95;;;8.15;;
16199;SDS011;8207;52.494;4.654;2024-03-17T15:07:43;12.80;;;7.97;;
16199;SDS011;8207;52.494;4.654;2024-03-17T15:10:09;14.15;;;7.63;;
16199;SDS011;8207;52.494;4.654;2024-03-17T15:12:35;13.35;;;7.80;;
16199;SDS011;8207;52.494;4.654;2024-03-17T15:15:01;11.27;;;7.63;;
16199;SDS011;8207;52.494;4.654;2024-03-17T15:17:26;11.88;;;7.13;;
16199;SDS011;8207;52.494;4.654;2024-03-17T15:19:52;10.25;;;7.10;;
16199;SDS011;8207;52.494;4.654;2024-03-17T15:22:18;13.95;;;6.63;;
16199;SDS011;8207;52.494;4.654;2024-03-17T15:24:46;10.07;;;6.93;;
16199;SDS011;8207;52.494;4.654;2024-03-17T15:27:12;10.98;;;6.93;;
16199;SDS011;8207;52.494;4.654;2024-03-17T15:29:39;12.20;;;7.88;;
16199;SDS011;8207;52.494;4.654;2024-03-17T15:32:06;20.52;;;7.80;;
16199;SDS011;8207;52.494;4.654;2024-03-17T15:34:31;15.68;;;8.13;;
16199;SDS011;8207;52.494;4.654;2024-03-17T15:36:58;11.23;;;7.28;;